Saltar para o conteúdo principal

Tavira

ID 1210883 · 37.1217, -7.6205 mapa

Última leitura · 2026-05-09 19:00 (Europe/Lisbon)

Temperatura
17.5 °C
Humidade
81 %
Pressão
1,011.2 hPa
Precipitação
0.2 mm
Radiação
Velocidade do vento
31.3 km/h
Direcção do vento
SW · Sudoeste

Histórico de 24 horas

Hora (Europe/Lisbon) Temperatura Humidade Pressão Chuva Vento Direcção
2026-05-09 19:00 17.5 °C 81 % 1,011.2 0.2 mm 31.3 km/h SW
2026-05-09 18:00 18.9 °C 73 % 1,010.7 0.0 mm 24.8 km/h SW
2026-05-09 17:00 20.3 °C 67 % 1,010.2 0.0 mm 30.6 km/h SW
2026-05-09 16:00 20.3 °C 71 % 1,010.0 0.0 mm 35.3 km/h SW
2026-05-09 15:00 20.6 °C 67 % 1,009.8 0.0 mm 24.8 km/h SW
2026-05-09 14:00 20.6 °C 67 % 1,009.6 0.0 mm 25.2 km/h SW
2026-05-09 13:00 19.4 °C 71 % 1,009.2 0.1 mm 25.2 km/h SW
2026-05-09 12:00 19.3 °C 68 % 1,008.5 0.0 mm 29.5 km/h SW
2026-05-09 11:00 18.7 °C 74 % 1,007.3 0.0 mm 30.6 km/h SW
2026-05-09 10:00 17.4 °C 86 % 1,006.4 0.0 mm 33.8 km/h SW
2026-05-09 09:00 15.8 °C 90 % 1,006.1 0.9 mm 30.6 km/h SW
2026-05-09 08:00 16.1 °C 86 % 1,006.0 0.0 mm 26.6 km/h S
2026-05-09 07:00 15.3 °C 91 % 1,005.9 0.4 mm 17.6 km/h SW
2026-05-09 06:00 16.0 °C 91 % 1,005.9 0.0 mm 16.2 km/h S
2026-05-09 05:00 16.2 °C 91 % 1,006.3 0.0 mm 26.6 km/h S
2026-05-09 04:00 16.0 °C 91 % 1,006.6 1.6 mm 22.3 km/h S
2026-05-09 03:00 16.5 °C 88 % 1,007.2 0.4 mm 25.9 km/h S
2026-05-09 02:00 15.1 °C 93 % 1,008.2 0.0 mm 30.6 km/h S
2026-05-09 01:00 14.4 °C 92 % 1,009.3 1.0 mm 2.5 km/h NE
2026-05-09 00:00 14.7 °C 85 % 1,009.9 0.3 mm 4.3 km/h NW
2026-05-08 23:00 16.7 °C 77 % 1,010.1 0.0 mm 15.8 km/h NW
2026-05-08 22:00 17.1 °C 76 % 1,009.8 0.0 mm 17.3 km/h S
2026-05-08 21:00 17.3 °C 75 % 1,009.5 0.0 mm 14.4 km/h S
2026-05-08 20:00 17.9 °C 70 % 1,009.5 0.0 mm 15.1 km/h S